Terminal Aerodrome Forecast
Issued by NWS Wilmington, OH

Current Version | Previous Version | Graphics & Text | Print | Product List | Glossary On
Versions: 1 2 3 4 5 6 7 8 9 10 11 12 13 14 15 16 17 18 19
000
FTUS41 KILN 071100
TAFCMH
TAF
KCMH 071140Z 0712/0812 19006KT 5SM BR BKN040 BKN250
     FM071400 21012KT P6SM BKN035
     FM071700 22014G23KT P6SM VCTS BKN040CB
      TEMPO 0720/0724 5SM -TSRA BR OVC025CB
     FM080000 24011KT 5SM -SHRA BR VCTS OVC020CB
     FM080900 29010KT 5SM -SHRA BR OVC015=

USA.gov is the U.S. government's official web portal to all federal, state and local government web resources and services.